Time;durP1;ratioP1;P1;durP2;ratioP2;P2;SDS_P1;SDS_P2;PMS_P1;PMS_P2;Temp;Humidity;BMP_temperature;BMP_pressure;BME280_temperature;BME280_humidity;BME280_pressure;Samples;Min_cycle;Max_cycle;Signal;HPM_P1;HPM_P2
2021/01/07 00:01:41;;;;;;;9.15;6.43;;;1.60;99.90;;;;;;4975385;28;20485;-84
2021/01/07 00:04:07;;;;;;;9.77;6.53;;;1.50;99.90;;;;;;4974005;28;20105;-84
2021/01/07 00:06:34;;;;;;;7.75;5.68;;;1.60;99.90;;;;;;4973998;28;20364;-84
2021/01/07 00:09:00;;;;;;;9.45;6.22;;;1.60;99.90;;;;;;4974437;28;20370;-84
2021/01/07 00:11:26;;;;;;;10.23;6.25;;;1.60;99.90;;;;;;4973848;28;20023;-84
2021/01/07 00:13:52;;;;;;;7.95;5.20;;;1.70;99.90;;;;;;4975049;28;20030;-84
2021/01/07 00:16:19;;;;;;;7.57;4.85;;;1.60;99.90;;;;;;4973809;28;20031;-84
2021/01/07 00:18:44;;;;;;;6.47;4.90;;;1.60;99.90;;;;;;4973677;28;20034;-84
2021/01/07 00:21:12;;;;;;;7.03;4.93;;;1.70;99.90;;;;;;4973689;28;20027;-84
2021/01/07 00:23:38;;;;;;;9.65;5.45;;;1.70;99.90;;;;;;4973544;28;20030;-83
2021/01/07 00:26:04;;;;;;;8.98;5.65;;;1.80;99.90;;;;;;4973672;28;20037;-84
2021/01/07 00:28:29;;;;;;;8.45;5.85;;;1.80;99.90;;;;;;4973865;28;20022;-83
2021/01/07 00:30:55;;;;;;;8.30;5.95;;;1.70;99.90;;;;;;4973563;28;20023;-84
2021/01/07 00:33:21;;;;;;;7.25;5.00;;;1.70;99.90;;;;;;4974757;28;20039;-84
2021/01/07 00:35:47;;;;;;;7.05;5.22;;;1.60;99.90;;;;;;4973523;28;20430;-83
2021/01/07 00:38:13;;;;;;;7.80;5.25;;;1.60;99.90;;;;;;4973278;28;20125;-84
2021/01/07 00:40:39;;;;;;;6.82;5.10;;;1.60;99.90;;;;;;4973567;28;20027;-84
2021/01/07 00:43:05;;;;;;;8.82;5.13;;;1.60;99.90;;;;;;4973283;28;20031;-84
2021/01/07 00:45:32;;;;;;;7.97;5.47;;;1.40;99.90;;;;;;4973305;28;20031;-84
2021/01/07 00:47:58;;;;;;;6.75;4.82;;;1.40;99.90;;;;;;4973255;28;20035;-83
2021/01/07 00:50:24;;;;;;;7.85;5.10;;;1.30;99.90;;;;;;4973335;28;20390;-84
2021/01/07 00:52:50;;;;;;;7.20;4.72;;;1.30;99.90;;;;;;4973250;28;20047;-84
2021/01/07 00:55:17;;;;;;;6.28;4.63;;;1.40;99.90;;;;;;4973240;28;20487;-84
2021/01/07 00:57:42;;;;;;;6.45;4.82;;;1.50;99.90;;;;;;4973221;28;20026;-84
2021/01/07 01:00:10;;;;;;;7.22;5.13;;;1.40;99.90;;;;;;4974425;28;20434;-83
2021/01/07 01:02:36;;;;;;;7.25;4.95;;;1.40;99.90;;;;;;4974335;28;20082;-83
2021/01/07 01:05:04;;;;;;;5.80;4.70;;;1.50;99.90;;;;;;4973740;28;20023;-83
2021/01/07 01:07:30;;;;;;;8.05;4.57;;;1.50;99.90;;;;;;4973366;28;20046;-83
2021/01/07 01:09:56;;;;;;;7.63;5.13;;;1.50;99.90;;;;;;4973158;28;20019;-83
2021/01/07 01:12:21;;;;;;;5.03;4.38;;;1.50;99.90;;;;;;4974651;28;20034;-83
2021/01/07 01:14:48;;;;;;;5.63;4.57;;;1.50;99.90;;;;;;4973062;28;20038;-84
2021/01/07 01:17:13;;;;;;;5.13;4.03;;;1.50;99.90;;;;;;4973084;28;20030;-84
2021/01/07 01:19:39;;;;;;;6.40;4.28;;;1.40;99.90;;;;;;4973019;28;20033;-83
2021/01/07 01:22:05;;;;;;;5.22;3.92;;;1.40;99.90;;;;;;4972911;28;20117;-84
2021/01/07 01:24:30;;;;;;;5.03;3.63;;;1.40;99.90;;;;;;4973020;28;20026;-84
2021/01/07 01:27:00;;;;;;;5.50;4.30;;;1.40;99.90;;;;;;4973035;28;20074;-84
2021/01/07 01:29:27;;;;;;;5.63;4.25;;;1.40;99.90;;;;;;4975380;28;20445;-83
2021/01/07 01:31:53;;;;;;;5.10;4.13;;;1.40;99.90;;;;;;4976782;28;20482;-83
2021/01/07 01:34:20;;;;;;;7.05;4.13;;;1.40;99.90;;;;;;4976715;28;20111;-83
2021/01/07 01:36:46;;;;;;;5.72;4.40;;;1.50;99.90;;;;;;4977988;28;20034;-83
2021/01/07 01:39:12;;;;;;;6.05;4.22;;;1.50;99.90;;;;;;4976463;28;20139;-83
2021/01/07 01:41:45;;;;;;;5.32;4.35;;;1.40;99.90;;;;;;4976583;28;20027;-83
2021/01/07 01:44:12;;;;;;;5.57;3.83;;;1.40;99.90;;;;;;4976611;28;20031;-83
2021/01/07 01:46:38;;;;;;;4.85;3.90;;;1.50;99.90;;;;;;4976492;28;20081;-83
2021/01/07 01:49:05;;;;;;;5.25;3.90;;;1.50;99.90;;;;;;4976474;28;20422;-83
2021/01/07 01:51:32;;;;;;;6.32;3.92;;;1.60;99.90;;;;;;4976469;28;20033;-83
2021/01/07 01:53:58;;;;;;;4.53;3.50;;;1.60;99.90;;;;;;4977928;28;20525;-83
2021/01/07 01:56:24;;;;;;;4.85;3.78;;;1.50;99.90;;;;;;4976277;28;20126;-83
2021/01/07 01:58:51;;;;;;;6.03;3.78;;;1.50;99.90;;;;;;4976234;28;20081;-83
2021/01/07 02:01:20;;;;;;;4.45;3.35;;;1.60;99.90;;;;;;4976245;28;20027;-83
2021/01/07 02:03:47;;;;;;;5.00;3.58;;;1.60;99.90;;;;;;4976157;28;20031;-83
2021/01/07 02:06:15;;;;;;;4.68;3.63;;;1.60;99.90;;;;;;4976114;28;20027;-84
2021/01/07 02:08:47;;;;;;;5.22;3.90;;;1.50;99.90;;;;;;4976100;28;20087;-83
2021/01/07 02:11:14;;;;;;;6.32;3.70;;;1.50;99.90;;;;;;4976071;28;20029;-83
2021/01/07 02:13:45;;;;;;;5.00;3.22;;;1.50;99.90;;;;;;4975985;28;20030;-83
2021/01/07 02:16:11;;;;;;;5.38;3.78;;;1.60;99.90;;;;;;4975963;28;20026;-83
2021/01/07 02:18:36;;;;;;;3.90;3.35;;;1.70;99.90;;;;;;4975899;28;20054;-83
2021/01/07 02:21:03;;;;;;;7.90;3.53;;;1.70;99.90;;;;;;4977081;28;20058;-83
2021/01/07 02:23:29;;;;;;;4.13;2.90;;;1.60;99.90;;;;;;4975705;28;20505;-83
2021/01/07 02:25:55;;;;;;;5.88;3.67;;;1.60;99.90;;;;;;4977338;28;20023;-83
2021/01/07 02:28:21;;;;;;;5.93;3.75;;;1.60;99.90;;;;;;4976956;28;20454;-83
2021/01/07 02:30:47;;;;;;;4.70;3.38;;;1.60;99.90;;;;;;4977007;28;20101;-83
2021/01/07 02:33:13;;;;;;;4.13;3.00;;;1.60;99.90;;;;;;4976920;28;20027;-83
2021/01/07 02:35:39;;;;;;;4.95;3.25;;;1.60;99.90;;;;;;4976865;28;20027;-83
2021/01/07 02:38:05;;;;;;;3.85;2.97;;;1.60;99.90;;;;;;4975380;28;20037;-83
2021/01/07 02:40:32;;;;;;;4.03;3.08;;;1.60;99.90;;;;;;4975456;28;20085;-83
2021/01/07 02:42:58;;;;;;;5.82;3.45;;;1.60;99.90;;;;;;4975161;28;20042;-83
2021/01/07 02:45:24;;;;;;;4.28;3.15;;;1.60;99.90;;;;;;4975484;28;20019;-83
2021/01/07 02:47:49;;;;;;;4.45;3.15;;;1.70;99.90;;;;;;4976660;28;20071;-83
2021/01/07 02:50:15;;;;;;;5.10;3.50;;;1.70;99.90;;;;;;4975341;28;20023;-83
2021/01/07 02:52:41;;;;;;;4.50;3.38;;;1.70;99.90;;;;;;4976551;28;20051;-83
2021/01/07 02:55:07;;;;;;;4.57;3.55;;;1.60;99.90;;;;;;4975221;28;20529;-83
2021/01/07 02:57:33;;;;;;;4.38;3.05;;;1.60;99.90;;;;;;4975234;28;20397;-83
2021/01/07 02:59:58;;;;;;;4.32;3.10;;;1.50;99.90;;;;;;4975164;28;20118;-83
2021/01/07 03:02:24;;;;;;;3.72;2.80;;;1.60;99.90;;;;;;4975004;28;20129;-83
2021/01/07 03:04:50;;;;;;;3.67;3.10;;;1.60;99.90;;;;;;4975393;28;20027;-83
2021/01/07 03:07:16;;;;;;;3.65;3.03;;;1.60;99.90;;;;;;4975270;28;20070;-83
2021/01/07 03:09:43;;;;;;;6.15;3.22;;;1.60;99.90;;;;;;4976270;28;20015;-83
2021/01/07 03:12:16;;;;;;;5.10;3.10;;;1.70;99.90;;;;;;4976258;28;20050;-83
2021/01/07 03:14:43;;;;;;;3.97;3.10;;;1.60;99.90;;;;;;4974945;28;20107;-83
2021/01/07 03:17:09;;;;;;;5.13;3.35;;;1.70;99.90;;;;;;4974796;28;20037;-83
2021/01/07 03:19:35;;;;;;;4.05;2.97;;;1.60;99.90;;;;;;4976029;28;20022;-83
2021/01/07 03:22:04;;;;;;;4.07;3.00;;;1.70;99.90;;;;;;4974675;28;20134;-83
2021/01/07 03:24:31;;;;;;;3.75;2.88;;;1.60;99.90;;;;;;4974669;28;20022;-83
2021/01/07 03:26:57;;;;;;;3.45;2.92;;;1.60;99.90;;;;;;4974640;28;20386;-83
2021/01/07 03:29:23;;;;;;;4.80;3.10;;;1.60;99.90;;;;;;4974582;28;20023;-83
2021/01/07 03:31:49;;;;;;;4.75;3.50;;;1.60;99.90;;;;;;4974467;28;20027;-83
2021/01/07 03:34:15;;;;;;;4.20;3.42;;;1.50;99.90;;;;;;4975798;28;20027;-83
2021/01/07 03:36:41;;;;;;;4.53;3.47;;;1.60;99.90;;;;;;4974516;28;20045;-83
2021/01/07 03:39:06;;;;;;;4.10;3.15;;;1.50;99.90;;;;;;4974398;28;20101;-83
2021/01/07 03:41:32;;;;;;;5.30;3.58;;;1.60;99.90;;;;;;4974959;28;20058;-83
2021/01/07 03:43:58;;;;;;;5.47;3.40;;;1.60;99.90;;;;;;4975588;28;20035;-83
2021/01/07 03:46:24;;;;;;;4.50;3.38;;;1.60;99.90;;;;;;4974316;28;20529;-83
2021/01/07 03:48:49;;;;;;;5.15;3.55;;;1.60;99.90;;;;;;4974265;28;20027;-83
2021/01/07 03:51:15;;;;;;;4.70;3.28;;;1.50;99.90;;;;;;4974268;28;20030;-83
2021/01/07 03:53:41;;;;;;;4.82;3.08;;;1.50;99.90;;;;;;4973810;28;20045;-83
2021/01/07 03:56:07;;;;;;;4.47;3.67;;;1.50;99.90;;;;;;4974158;28;20038;-83
2021/01/07 03:58:34;;;;;;;3.80;3.30;;;1.50;99.90;;;;;;4974100;28;20027;-83
2021/01/07 04:01:01;;;;;;;4.45;3.40;;;1.60;99.90;;;;;;4974059;28;20023;-83
2021/01/07 04:03:26;;;;;;;4.40;3.45;;;1.60;99.90;;;;;;4973939;28;20451;-84
2021/01/07 04:05:52;;;;;;;3.70;3.30;;;1.50;99.90;;;;;;4973993;28;20023;-83
2021/01/07 04:08:18;;;;;;;3.95;3.38;;;1.60;99.90;;;;;;4973919;28;20037;-83
2021/01/07 04:10:43;;;;;;;4.68;3.53;;;1.60;99.90;;;;;;4973939;28;20368;-83
2021/01/07 04:13:09;;;;;;;7.00;3.92;;;1.50;99.90;;;;;;4973852;28;20439;-83
2021/01/07 04:15:35;;;;;;;4.20;3.75;;;1.50;99.90;;;;;;4974069;28;20378;-83
2021/01/07 04:18:01;;;;;;;4.00;3.30;;;1.60;99.90;;;;;;4973762;28;20109;-84
2021/01/07 04:20:26;;;;;;;5.60;3.85;;;1.50;99.90;;;;;;4973778;28;20131;-83
2021/01/07 04:22:52;;;;;;;5.60;3.92;;;1.40;99.90;;;;;;4974842;28;20023;-83
2021/01/07 04:25:18;;;;;;;5.55;4.30;;;1.40;99.90;;;;;;4973712;28;20030;-83
2021/01/07 04:27:43;;;;;;;5.10;3.65;;;1.50;99.90;;;;;;4973627;28;20027;-83
2021/01/07 04:30:10;;;;;;;5.15;3.97;;;1.50;99.90;;;;;;4975125;28;20038;-83
2021/01/07 04:32:35;;;;;;;5.53;3.45;;;1.50;99.90;;;;;;4973498;28;20104;-83
2021/01/07 04:35:01;;;;;;;5.80;4.15;;;1.50;99.90;;;;;;4973503;28;20487;-83
2021/01/07 04:37:27;;;;;;;5.00;3.85;;;1.50;99.90;;;;;;4975079;28;20247;-83
2021/01/07 04:39:52;;;;;;;4.90;3.88;;;1.50;99.90;;;;;;4974530;28;20043;-83
2021/01/07 04:42:18;;;;;;;6.40;4.55;;;1.60;99.90;;;;;;4974640;28;20386;-83
2021/01/07 04:44:44;;;;;;;4.75;3.80;;;1.60;99.90;;;;;;4973407;28;20027;-83
2021/01/07 04:47:11;;;;;;;7.18;4.57;;;1.50;99.90;;;;;;4973357;28;20113;-83
2021/01/07 04:49:38;;;;;;;4.95;3.90;;;1.60;99.90;;;;;;4973356;28;20048;-83
2021/01/07 04:52:04;;;;;;;8.73;4.85;;;1.60;99.90;;;;;;4973278;28;20077;-83
2021/01/07 04:54:29;;;;;;;6.00;4.68;;;1.60;99.90;;;;;;4973275;28;20050;-84
2021/01/07 04:56:55;;;;;;;5.35;3.58;;;1.60;99.90;;;;;;4973258;28;20054;-83
2021/01/07 04:59:21;;;;;;;7.47;4.63;;;1.50;99.90;;;;;;4973233;28;20026;-83
2021/01/07 05:01:48;;;;;;;6.45;4.47;;;1.50;99.90;;;;;;4974821;28;20054;-83
2021/01/07 05:04:17;;;;;;;7.70;5.25;;;1.50;99.90;;;;;;4974274;28;20474;-84
2021/01/07 05:06:46;;;;;;;6.88;5.20;;;1.60;99.90;;;;;;4978861;28;20436;-83
2021/01/07 05:09:11;;;;;;;6.10;4.32;;;1.50;99.90;;;;;;4978435;28;20026;-83
2021/01/07 05:11:37;;;;;;;7.32;5.13;;;1.60;99.90;;;;;;4977331;28;20031;-83
2021/01/07 05:14:08;;;;;;;10.18;4.80;;;1.60;99.90;;;;;;4977134;28;20435;-83
2021/01/07 05:16:34;;;;;;;7.22;4.82;;;1.60;99.90;;;;;;4978402;28;20054;-83
2021/01/07 05:19:04;;;;;;;6.55;4.78;;;1.50;99.90;;;;;;4976984;28;20410;-83
2021/01/07 05:21:29;;;;;;;6.70;4.93;;;1.50;99.90;;;;;;4976941;28;20386;-83
2021/01/07 05:23:57;;;;;;;7.28;5.13;;;1.50;99.90;;;;;;4976804;28;20026;-83
2021/01/07 05:26:24;;;;;;;7.20;5.30;;;1.60;99.90;;;;;;4976889;28;20089;-83
2021/01/07 05:28:55;;;;;;;7.35;5.43;;;1.60;99.90;;;;;;4976866;28;20047;-83
2021/01/07 05:31:22;;;;;;;7.05;4.97;;;1.50;99.90;;;;;;4978070;28;20025;-83
2021/01/07 05:33:49;;;;;;;7.88;6.03;;;1.60;99.90;;;;;;4977101;28;20050;-84
2021/01/07 05:36:25;;;;;;;8.45;5.90;;;1.60;99.90;;;;;;4978017;28;20030;-83
2021/01/07 05:38:52;;;;;;;8.30;5.72;;;1.60;99.90;;;;;;4976430;28;20047;-84
2021/01/07 05:41:19;;;;;;;9.85;5.63;;;1.50;99.90;;;;;;4976633;28;20501;-84
2021/01/07 05:43:45;;;;;;;7.38;5.47;;;1.40;99.90;;;;;;4976503;28;20035;-84
2021/01/07 05:46:12;;;;;;;7.88;5.50;;;1.50;99.90;;;;;;4978015;28;20023;-83
2021/01/07 05:48:38;;;;;;;8.35;5.65;;;1.50;99.90;;;;;;4976543;28;20034;-83
2021/01/07 05:51:05;;;;;;;8.88;5.53;;;1.40;99.90;;;;;;4976466;28;20050;-83
2021/01/07 05:53:31;;;;;;;8.13;5.82;;;1.50;99.90;;;;;;4976414;28;20363;-83
2021/01/07 05:55:57;;;;;;;7.55;5.20;;;1.60;99.90;;;;;;4977948;28;20027;-83
2021/01/07 05:58:24;;;;;;;7.20;5.28;;;1.60;99.90;;;;;;4977536;28;20440;-83
2021/01/07 06:00:55;;;;;;;7.55;5.53;;;1.50;99.90;;;;;;4976290;28;20026;-83
2021/01/07 06:03:24;;;;;;;21.17;13.20;;;1.50;99.90;;;;;;4977463;28;20109;-83
2021/01/07 06:05:56;;;;;;;10.32;7.15;;;1.40;99.90;;;;;;4977418;28;20101;-83
2021/01/07 06:08:23;;;;;;;9.05;6.45;;;1.40;99.90;;;;;;4977443;28;20019;-83
2021/01/07 06:10:51;;;;;;;7.63;5.68;;;1.40;99.90;;;;;;4976124;28;20027;-83
2021/01/07 06:13:16;;;;;;;10.95;6.80;;;1.50;99.90;;;;;;4976090;28;20080;-83
2021/01/07 06:15:46;;;;;;;8.55;6.00;;;1.50;99.90;;;;;;4975847;28;20495;-83
2021/01/07 06:18:16;;;;;;;10.68;7.55;;;1.50;99.90;;;;;;4976048;28;20030;-84
2021/01/07 06:20:41;;;;;;;10.90;7.45;;;1.50;99.90;;;;;;4975737;28;20379;-83
2021/01/07 06:23:18;;;;;;;11.20;7.28;;;1.60;99.90;;;;;;4977349;28;20031;-83
2021/01/07 06:25:44;;;;;;;9.48;6.80;;;1.60;99.90;;;;;;4977369;28;20056;-84
2021/01/07 06:28:25;;;;;;;12.23;8.43;;;1.60;99.90;;;;;;4975761;28;20395;-84
2021/01/07 06:30:54;;;;;;;12.75;8.13;;;1.40;99.90;;;;;;4975785;28;20026;-84
2021/01/07 06:33:20;;;;;;;9.10;6.25;;;1.50;99.90;;;;;;4976931;28;20023;-83
2021/01/07 06:35:46;;;;;;;14.82;8.45;;;1.50;99.90;;;;;;4975685;28;20035;-83
2021/01/07 06:38:25;;;;;;;10.95;7.88;;;1.50;99.90;;;;;;4975451;28;20058;-83
2021/01/07 06:40:51;;;;;;;11.45;8.60;;;1.40;99.90;;;;;;4975607;28;20026;-84
2021/01/07 06:43:22;;;;;;;12.05;8.02;;;1.50;99.90;;;;;;4976766;28;20085;-84
2021/01/07 06:45:50;;;;;;;9.45;6.45;;;1.40;99.90;;;;;;4976727;28;20027;-83
2021/01/07 06:48:26;;;;;;;14.15;8.45;;;1.50;99.90;;;;;;4975408;28;20027;-83
2021/01/07 06:50:55;;;;;;;13.38;8.02;;;1.50;99.90;;;;;;4975350;28;20023;-83
2021/01/07 06:53:21;;;;;;;13.27;8.70;;;1.40;99.90;;;;;;4976565;28;20031;-83
2021/01/07 06:56:16;;;;;;;11.30;7.45;;;1.30;99.90;;;;;;4976572;28;20081;-83
2021/01/07 06:58:43;;;;;;;11.32;8.27;;;1.50;99.90;;;;;;4975289;28;20026;-83
2021/01/07 07:01:10;;;;;;;13.20;8.75;;;1.50;99.90;;;;;;4975202;28;20463;-84
2021/01/07 07:03:46;;;;;;;10.85;8.15;;;1.50;99.90;;;;;;4975064;28;20081;-83
2021/01/07 07:06:16;;;;;;;18.48;8.80;;;1.50;99.90;;;;;;4975172;28;20499;-83
2021/01/07 07:08:45;;;;;;;12.80;8.05;;;1.50;99.90;;;;;;4975124;28;20113;-83
2021/01/07 07:11:14;;;;;;;12.30;8.38;;;1.40;99.90;;;;;;4975002;28;20023;-83
2021/01/07 07:13:42;;;;;;;13.55;8.50;;;1.50;99.90;;;;;;4974949;28;20023;-84
2021/01/07 07:16:10;;;;;;;10.80;7.82;;;1.50;99.90;;;;;;4974921;28;20023;-84
2021/01/07 07:18:37;;;;;;;14.88;9.95;;;1.40;99.90;;;;;;4974852;28;20364;-83
2021/01/07 07:21:14;;;;;;;16.05;9.98;;;1.40;99.90;;;;;;4974960;28;20471;-84
2021/01/07 07:23:42;;;;;;;14.77;9.43;;;1.20;99.90;;;;;;4974829;28;20474;-83
2021/01/07 07:26:10;;;;;;;12.07;8.60;;;1.20;99.90;;;;;;4974587;28;20027;-83
2021/01/07 07:28:36;;;;;;;14.10;9.00;;;1.30;99.90;;;;;;4974139;28;20030;-83
2021/01/07 07:31:02;;;;;;;12.68;8.15;;;1.40;99.90;;;;;;4976179;28;20505;-83
2021/01/07 07:33:31;;;;;;;13.05;9.32;;;1.50;99.90;;;;;;4974641;28;20104;-83
2021/01/07 07:35:58;;;;;;;16.02;9.18;;;1.50;99.90;;;;;;4974612;28;20038;-83
2021/01/07 07:38:29;;;;;;;14.88;9.48;;;1.50;99.90;;;;;;4974270;28;20039;-84
2021/01/07 07:41:01;;;;;;;14.35;8.90;;;1.60;99.90;;;;;;4975724;28;20030;-84
2021/01/07 07:43:29;;;;;;;14.98;9.27;;;1.50;99.90;;;;;;4974371;28;20105;-83
2021/01/07 07:45:55;;;;;;;16.02;9.10;;;1.60;99.90;;;;;;4974345;28;20113;-83
2021/01/07 07:48:25;;;;;;;14.82;9.35;;;1.70;99.90;;;;;;4974293;28;20119;-83
2021/01/07 07:50:52;;;;;;;15.25;9.20;;;1.70;99.90;;;;;;4974558;28;20027;-83
2021/01/07 07:53:18;;;;;;;13.88;10.18;;;1.60;99.90;;;;;;4974207;28;20042;-84
2021/01/07 07:55:44;;;;;;;11.88;8.45;;;1.60;99.90;;;;;;4974205;28;20478;-83
2021/01/07 07:58:14;;;;;;;14.55;8.38;;;1.50;99.90;;;;;;4975504;28;20106;-83
2021/01/07 08:00:54;;;;;;;11.20;8.38;;;1.50;99.90;;;;;;4974087;28;20034;-83
2021/01/07 08:03:28;;;;;;;13.80;8.82;;;1.50;99.90;;;;;;4975235;28;20382;-84
2021/01/07 08:05:58;;;;;;;13.50;8.40;;;1.70;99.90;;;;;;4974129;28;20086;-84
2021/01/07 08:08:28;;;;;;;14.93;9.75;;;1.70;99.90;;;;;;4975562;28;20034;-84
2021/01/07 08:10:56;;;;;;;14.88;8.68;;;1.70;99.90;;;;;;4973917;28;20026;-84
2021/01/07 08:13:27;;;;;;;13.10;9.52;;;1.70;99.90;;;;;;4973851;28;20122;-84
2021/01/07 08:15:55;;;;;;;13.05;8.45;;;1.70;99.90;;;;;;4973800;28;20040;-84
2021/01/07 08:18:22;;;;;;;13.65;9.75;;;1.70;99.90;;;;;;4973833;28;20034;-84
2021/01/07 08:20:51;;;;;;;12.35;8.55;;;1.70;99.90;;;;;;4973747;28;20031;-83
2021/01/07 08:23:18;;;;;;;15.13;10.55;;;1.70;99.90;;;;;;4974864;28;20102;-83
2021/01/07 08:25:52;;;;;;;17.73;10.40;;;1.70;99.90;;;;;;4973636;28;20053;-83
2021/01/07 08:28:21;;;;;;;;;;;1.60;99.90;;;;;;4975644;28;20506;-83
2021/01/07 08:30:52;;;;;;;12.77;8.60;;;1.60;99.90;;;;;;4973630;28;19961;-83
2021/01/07 08:33:21;;;;;;;14.98;10.20;;;1.70;99.90;;;;;;4973526;28;20035;-83
2021/01/07 08:35:47;;;;;;;14.30;9.90;;;1.60;99.90;;;;;;4973563;28;20475;-84
2021/01/07 08:38:27;;;;;;;12.90;9.30;;;1.70;99.90;;;;;;4973189;28;20058;-84
2021/01/07 08:41:14;;;;;;;15.18;10.35;;;1.70;99.90;;;;;;4974743;28;20031;-83
2021/01/07 08:43:41;;;;;;;14.85;10.13;;;1.70;99.90;;;;;;4963503;28;20042;-83
2021/01/07 08:46:15;;;;;;;17.27;11.02;;;1.80;99.90;;;;;;4975198;28;20482;-83
2021/01/07 08:48:42;;;;;;;;;;;1.80;99.90;;;;;;4975111;28;20026;-83
2021/01/07 08:51:21;;;;;;;13.57;8.85;;;1.80;99.90;;;;;;4974537;28;19910;-83
2021/01/07 08:53:47;;;;;;;12.98;9.00;;;1.90;99.90;;;;;;4973190;28;20030;-83
2021/01/07 08:56:28;;;;;;;35.03;19.40;;;2.00;99.90;;;;;;4973186;28;20092;-83
2021/01/07 08:59:17;;;;;;;16.83;10.13;;;2.00;99.90;;;;;;4989467;28;20427;-82
2021/01/07 09:01:49;;;;;;;19.27;11.02;;;2.10;99.90;;;;;;4990904;28;20114;-83
2021/01/07 09:04:43;;;;;;;14.38;10.57;;;2.20;99.90;;;;;;4994542;28;20014;-83
2021/01/07 09:07:13;;;;;;;16.45;10.80;;;2.10;99.90;;;;;;4978583;28;20139;-83
2021/01/07 09:09:43;;;;;;;14.32;10.00;;;2.10;99.90;;;;;;4989357;28;20390;-83
2021/01/07 09:12:10;;;;;;;17.23;10.32;;;2.10;99.90;;;;;;4973117;28;20383;-83
2021/01/07 09:14:48;;;;;;;16.55;10.52;;;2.20;99.90;;;;;;4989308;28;20134;-83
2021/01/07 09:17:19;;;;;;;16.27;10.55;;;2.20;99.90;;;;;;4973217;28;20026;-83
2021/01/07 09:19:45;;;;;;;13.50;9.70;;;2.20;99.90;;;;;;4973123;28;20033;-83
2021/01/07 09:22:17;;;;;;;12.95;9.07;;;2.20;99.90;;;;;;4973078;28;20534;-83
2021/01/07 09:24:43;;;;;;;15.75;10.10;;;2.20;99.90;;;;;;4974208;28;20037;-83
2021/01/07 09:27:11;;;;;;;14.75;9.65;;;2.30;99.90;;;;;;4973439;28;20026;-86
2021/01/07 09:29:38;;;;;;;14.07;9.73;;;2.30;99.90;;;;;;4973206;28;20049;-83
2021/01/07 09:32:05;;;;;;;20.35;10.85;;;2.30;99.90;;;;;;4973059;28;20111;-82
2021/01/07 09:34:31;;;;;;;15.27;9.75;;;2.40;99.90;;;;;;4972872;28;20474;-83
2021/01/07 09:37:04;;;;;;;16.42;10.65;;;2.40;99.90;;;;;;4972850;28;20029;-82
2021/01/07 09:39:29;;;;;;;16.92;10.68;;;2.40;99.90;;;;;;4972850;28;20473;-83
2021/01/07 09:41:55;;;;;;;16.20;11.07;;;2.30;99.90;;;;;;4972805;28;20114;-83
2021/01/07 09:44:21;;;;;;;20.38;12.95;;;2.20;99.90;;;;;;4972817;28;20035;-83
2021/01/07 09:46:51;;;;;;;23.90;12.75;;;2.20;99.90;;;;;;4974103;28;20038;-83
2021/01/07 09:49:16;;;;;;;23.75;12.30;;;2.20;99.90;;;;;;4972797;28;20054;-83
2021/01/07 09:51:42;;;;;;;18.23;11.98;;;2.30;99.90;;;;;;4977002;28;20478;-83
2021/01/07 09:54:08;;;;;;;18.02;10.70;;;2.40;99.90;;;;;;4976399;28;20035;-83
2021/01/07 09:56:34;;;;;;;17.17;10.95;;;2.50;99.90;;;;;;4976331;28;20023;-83
2021/01/07 09:58:59;;;;;;;14.07;9.48;;;2.50;99.90;;;;;;4977581;28;20023;-83
2021/01/07 10:01:25;;;;;;;17.90;11.00;;;2.60;99.90;;;;;;4976219;28;20402;-83
2021/01/07 10:03:50;;;;;;;17.10;11.10;;;2.60;99.90;;;;;;4977250;28;20026;-83
2021/01/07 10:06:16;;;;;;;26.27;14.50;;;2.60;99.90;;;;;;4976156;28;20023;-83
2021/01/07 10:08:42;;;;;;;15.57;10.73;;;2.70;99.90;;;;;;4976245;28;20023;-83
2021/01/07 10:11:08;;;;;;;16.92;10.82;;;2.80;99.90;;;;;;4977493;28;20034;-83
2021/01/07 10:13:34;;;;;;;19.23;12.40;;;2.80;99.90;;;;;;4976073;28;20027;-83
2021/01/07 10:16:00;;;;;;;18.85;10.90;;;2.80;99.90;;;;;;4976026;28;20518;-83
2021/01/07 10:18:26;;;;;;;16.98;11.48;;;2.90;99.90;;;;;;4992198;28;20108;-83
2021/01/07 10:20:58;;;;;;;15.93;10.65;;;2.90;99.90;;;;;;4975914;28;20101;-83
2021/01/07 10:23:24;;;;;;;17.27;9.50;;;2.80;99.90;;;;;;4975829;28;20114;-83
2021/01/07 10:25:50;;;;;;;13.82;9.32;;;2.80;99.90;;;;;;4975770;28;20117;-83
2021/01/07 10:28:18;;;;;;;16.35;10.00;;;2.80;99.90;;;;;;4975890;28;20479;-84
2021/01/07 10:30:45;;;;;;;16.30;9.95;;;2.80;99.90;;;;;;4975757;28;20046;-83
2021/01/07 10:33:11;;;;;;;16.48;10.00;;;2.90;99.90;;;;;;4975654;28;20030;-82
2021/01/07 10:35:38;;;;;;;14.23;9.85;;;2.90;99.90;;;;;;4975666;28;20023;-84
2021/01/07 10:38:05;;;;;;;13.98;9.52;;;2.90;99.90;;;;;;4976710;28;20037;-84
2021/01/07 10:40:32;;;;;;;14.15;10.30;;;3.00;99.90;;;;;;4975586;28;20487;-84
2021/01/07 10:42:58;;;;;;;15.35;11.02;;;2.90;99.90;;;;;;4976765;28;20038;-84
2021/01/07 10:45:25;;;;;;;17.75;11.40;;;2.90;99.90;;;;;;4975526;28;20027;-83
2021/01/07 10:47:54;;;;;;;18.02;11.07;;;3.00;99.90;;;;;;4975419;28;20026;-83
2021/01/07 10:50:28;;;;;;;27.45;11.70;;;3.20;99.90;;;;;;4975406;28;20023;-83
2021/01/07 10:53:10;;;;;;;16.98;9.82;;;3.40;99.90;;;;;;4975408;28;20045;-84
2021/01/07 10:55:45;;;;;;;16.58;10.05;;;3.50;99.90;;;;;;4975360;28;20479;-84
2021/01/07 10:58:18;;;;;;;15.93;9.52;;;3.50;99.90;;;;;;4975338;28;20117;-84
2021/01/07 11:01:14;;;;;;;15.83;10.53;;;3.50;99.90;;;;;;4975553;28;20058;-84
2021/01/07 11:04:13;;;;;;;17.15;11.15;;;3.40;99.90;;;;;;4975372;28;20030;-85
2021/01/07 11:06:50;;;;;;;14.02;9.45;;;3.30;99.90;;;;;;4975201;28;20027;-83
2021/01/07 11:09:19;;;;;;;18.02;10.25;;;3.30;99.90;;;;;;4975159;28;20019;-82
2021/01/07 11:11:52;;;;;;;12.05;8.20;;;3.30;99.90;;;;;;4975103;28;20074;-84
2021/01/07 11:14:36;;;;;;;14.63;8.93;;;3.30;99.90;;;;;;4975016;28;20039;-84
2021/01/07 11:17:11;;;;;;;12.77;8.35;;;3.30;99.90;;;;;;4974982;28;20534;-85
2021/01/07 11:19:38;;;;;;;12.05;8.07;;;3.40;99.90;;;;;;4974975;28;20027;-86
2021/01/07 11:22:18;;;;;;;15.93;8.52;;;3.30;99.90;;;;;;4974838;28;20081;-88
2021/01/07 11:24:47;;;;;;;18.42;8.63;;;3.40;99.90;;;;;;4974884;28;20054;-88
2021/01/07 11:27:14;;;;;;;19.30;9.18;;;3.40;99.90;;;;;;4974747;28;20434;-87
2021/01/07 11:29:42;;;;;;;14.77;8.85;;;3.50;99.90;;;;;;4974940;28;20046;-83
2021/01/07 11:32:08;;;;;;;13.40;8.85;;;3.50;99.90;;;;;;4975404;28;20386;-87
2021/01/07 11:34:35;;;;;;;16.80;9.40;;;3.50;99.90;;;;;;4959894;28;20024;-88
2021/01/07 11:37:12;;;;;;;11.82;8.20;;;3.50;99.90;;;;;;4974803;28;20031;-86
2021/01/07 11:39:56;;;;;;;12.18;7.63;;;3.40;99.90;;;;;;4974513;28;20035;-87
2021/01/07 11:42:59;;;;;;;19.75;11.77;;;3.40;99.90;;;;;;4974565;28;20447;-85
2021/01/07 11:45:36;;;;;;;13.98;9.45;;;3.40;99.90;;;;;;4990663;28;20042;-81
2021/01/07 11:48:07;;;;;;;14.57;9.18;;;3.40;99.90;;;;;;4974358;28;20023;-82
2021/01/07 11:50:37;;;;;;;15.15;10.15;;;3.30;99.90;;;;;;4975798;28;20019;-85
2021/01/07 11:53:07;;;;;;;13.63;8.48;;;3.20;99.90;;;;;;4990617;28;20031;-87
2021/01/07 11:55:35;;;;;;;10.98;7.65;;;3.20;99.90;;;;;;4974215;28;20601;-82
2021/01/07 11:58:02;;;;;;;12.07;8.70;;;3.30;99.90;;;;;;4974148;28;20023;-82
2021/01/07 12:00:28;;;;;;;13.25;8.55;;;3.20;99.90;;;;;;4974127;28;20227;-82
2021/01/07 12:02:55;;;;;;;12.07;8.20;;;3.20;99.90;;;;;;4973996;28;20034;-82
2021/01/07 12:05:24;;;;;;;12.50;8.90;;;3.10;99.90;;;;;;4975264;28;20434;-83
2021/01/07 12:08:08;;;;;;;12.48;8.45;;;3.10;99.90;;;;;;4974285;28;20470;-83
2021/01/07 12:10:40;;;;;;;;;;;3.00;99.90;;;;;;4975885;28;20026;-82
2021/01/07 12:13:24;;;;;;;13.35;7.90;;;3.10;99.90;;;;;;4973734;28;20377;-83
2021/01/07 12:15:51;;;;;;;10.30;7.03;;;2.90;99.90;;;;;;4973861;28;20066;-82
2021/01/07 12:18:17;;;;;;;11.68;7.95;;;3.00;99.90;;;;;;4974111;28;20086;-83
2021/01/07 12:20:46;;;;;;;12.85;8.35;;;3.10;99.90;;;;;;4973742;28;20364;-83
2021/01/07 12:23:13;;;;;;;13.02;8.85;;;3.20;99.90;;;;;;4973760;28;20053;-82
2021/01/07 12:25:48;;;;;;;12.32;8.07;;;3.10;99.90;;;;;;4973628;28;20023;-84
2021/01/07 12:28:20;;;;;;;13.60;8.65;;;3.10;99.90;;;;;;4973666;28;20027;-84
2021/01/07 12:30:51;;;;;;;13.32;9.13;;;3.10;99.90;;;;;;4973590;28;20030;-83
2021/01/07 12:33:35;;;;;;;13.77;8.10;;;3.00;99.90;;;;;;4974712;28;20574;-83
2021/01/07 12:36:29;;;;;;;14.35;8.75;;;3.10;99.90;;;;;;4973593;28;20471;-84
2021/01/07 12:39:04;;;;;;;13.60;8.60;;;3.00;99.90;;;;;;4973393;28;20053;-84
2021/01/07 12:41:37;;;;;;;14.00;9.57;;;2.90;99.90;;;;;;4973530;28;20031;-84
2021/01/07 12:44:08;;;;;;;13.13;8.65;;;2.90;99.90;;;;;;4974712;28;20391;-82
2021/01/07 12:46:41;;;;;;;15.70;8.73;;;3.00;99.90;;;;;;4973938;28;20035;-84
2021/01/07 12:49:08;;;;;;;17.65;11.07;;;3.00;99.90;;;;;;4973441;28;20069;-83
2021/01/07 12:51:35;;;;;;;15.05;10.07;;;3.10;99.90;;;;;;4973293;28;20050;-82
2021/01/07 12:54:02;;;;;;;17.63;11.27;;;3.10;99.90;;;;;;4973281;28;20086;-86
2021/01/07 12:56:39;;;;;;;20.25;12.68;;;3.10;99.90;;;;;;4974648;28;20027;-85
2021/01/07 12:59:10;;;;;;;14.57;9.57;;;3.20;99.90;;;;;;4973419;28;20039;-84